Time;durP1;ratioP1;P1;durP2;ratioP2;P2;SDS_P1;SDS_P2;PMS_P1;PMS_P2;Temp;Humidity;BMP_temperature;BMP_pressure;BME280_temperature;BME280_humidity;BME280_pressure;Samples;Min_cycle;Max_cycle;Signal;HPM_P1;HPM_P2
2022/07/05 00:02:24;;;;;;;2.30;1.40;;;;;;;23.22;46.73;102070.03;5016367;28;20354;-66
2022/07/05 00:04:50;;;;;;;3.00;1.52;;;;;;;23.22;46.45;102070.03;5016135;28;20083;-67
2022/07/05 00:07:19;;;;;;;2.10;1.10;;;;;;;23.22;46.62;102078.00;5015729;28;20030;-66
2022/07/05 00:09:46;;;;;;;2.85;1.27;;;;;;;23.21;46.77;102071.03;5016250;28;20465;-67
2022/07/05 00:12:14;;;;;;;3.00;1.17;;;;;;;23.21;46.60;102076.34;5016088;28;20021;-67
2022/07/05 00:14:41;;;;;;;2.40;1.30;;;;;;;23.20;46.74;102066.66;5015693;28;20037;-66
2022/07/05 00:17:07;;;;;;;3.05;1.42;;;;;;;23.18;46.64;102057.97;5016099;28;20065;-66
2022/07/05 00:19:33;;;;;;;3.08;1.52;;;;;;;23.17;46.31;102057.13;5016131;28;20022;-66
2022/07/05 00:21:59;;;;;;;2.90;1.20;;;;;;;23.16;46.38;102059.91;5015155;28;20022;-66
2022/07/05 00:24:25;;;;;;;2.40;1.27;;;;;;;23.15;46.25;102064.38;5016062;28;20033;-66
2022/07/05 00:26:50;;;;;;;2.58;1.13;;;;;;;23.15;46.39;102067.06;5015862;28;20033;-66
2022/07/05 00:29:16;;;;;;;3.00;1.10;;;;;;;23.16;46.55;102065.22;5015521;28;20026;-66
2022/07/05 00:31:41;;;;;;;2.42;1.20;;;;;;;23.13;46.48;102069.00;5016197;28;20026;-66
2022/07/05 00:34:06;;;;;;;3.03;1.50;;;;;;;23.13;46.40;102063.69;5015746;28;20026;-67
2022/07/05 00:36:32;;;;;;;2.20;1.20;;;;;;;23.14;46.30;102067.19;5015005;28;20044;-66
2022/07/05 00:38:57;;;;;;;3.20;1.30;;;;;;;23.12;46.50;102062.00;5015631;28;20354;-66
2022/07/05 00:41:22;;;;;;;2.72;1.23;;;;;;;23.12;46.88;102061.16;5014967;28;20420;-66
2022/07/05 00:43:56;;;;;;;2.80;1.10;;;;;;;23.11;46.17;102062.94;5015764;28;20026;-66
2022/07/05 00:46:21;;;;;;;2.08;1.20;;;;;;;23.10;46.35;102061.28;5015785;28;20386;-66
2022/07/05 00:48:47;;;;;;;2.25;1.27;;;;;;;23.09;46.35;102064.91;5014898;28;20030;-66
2022/07/05 00:51:13;;;;;;;2.80;1.20;;;;;;;23.09;46.18;102059.59;5015212;28;20022;-67
2022/07/05 00:53:39;;;;;;;4.05;1.50;;;;;;;23.08;46.40;102057.91;5015416;28;20073;-66
2022/07/05 00:56:04;;;;;;;3.33;1.30;;;;;;;23.07;46.64;102064.16;5014265;28;20021;-66
2022/07/05 00:58:32;;;;;;;2.80;1.48;;;;;;;23.07;46.28;102060.66;5015692;28;20037;-66
2022/07/05 01:00:58;;;;;;;3.70;1.20;;;;;;;23.06;46.55;102058.97;5014996;28;20398;-66
2022/07/05 01:03:23;;;;;;;2.17;1.15;;;;;;;23.06;46.58;102065.13;5014469;28;20030;-66
2022/07/05 01:05:49;;;;;;;2.67;1.35;;;;;;;23.04;46.54;102055.59;5015219;28;20088;-66
2022/07/05 01:08:15;;;;;;;3.33;1.38;;;;;;;23.04;46.18;102055.59;5015204;28;20029;-66
2022/07/05 01:10:41;;;;;;;2.60;1.13;;;;;;;23.04;46.53;102067.06;5014390;28;20018;-66
2022/07/05 01:13:08;;;;;;;2.70;1.38;;;;;;;23.03;46.13;102068.03;5014910;28;20036;-67
2022/07/05 01:15:34;;;;;;;2.50;1.35;;;;;;;23.00;46.51;102063.84;5015159;28;20026;-66
2022/07/05 01:18:00;;;;;;;2.35;1.15;;;;;;;23.01;46.11;102056.69;5014040;28;20055;-66
2022/07/05 01:20:26;;;;;;;2.63;1.30;;;;;;;23.01;46.30;102062.84;5015178;28;20022;-66
2022/07/05 01:22:56;;;;;;;3.03;1.38;;;;;;;23.00;46.29;102060.31;5014540;28;20104;-66
2022/07/05 01:25:23;;;;;;;3.42;1.40;;;;;;;22.98;46.09;102062.25;5014295;28;20026;-67
2022/07/05 01:27:49;;;;;;;2.40;1.23;;;;;;;22.99;46.29;102071.94;5015085;28;20026;-66
2022/07/05 01:30:15;;;;;;;2.80;1.20;;;;;;;22.94;46.39;102058.16;5014880;28;20026;-67
2022/07/05 01:32:40;;;;;;;2.92;1.30;;;;;;;22.96;46.37;102061.56;5014187;28;20034;-66
2022/07/05 01:35:07;;;;;;;3.20;1.23;;;;;;;22.96;46.48;102070.38;5014275;28;20261;-66
2022/07/05 01:37:33;;;;;;;2.72;1.10;;;;;;;22.96;46.20;102064.22;5013785;28;20033;-66
2022/07/05 01:40:00;;;;;;;2.63;1.27;;;;;;;22.94;46.18;102063.47;5014247;28;20381;-66
2022/07/05 01:42:25;;;;;;;2.88;1.40;;;;;;;22.95;46.36;102059.84;5014565;28;20469;-66
2022/07/05 01:44:50;;;;;;;2.77;1.40;;;;;;;22.94;45.83;102066.13;5013499;28;20113;-66
2022/07/05 01:47:16;;;;;;;3.47;1.55;;;;;;;22.93;45.85;102069.78;5014779;28;20639;-66
2022/07/05 01:49:45;;;;;;;2.65;1.48;;;;;;;22.91;46.09;102061.94;5014421;28;20073;-66
2022/07/05 01:52:12;;;;;;;2.92;1.30;;;;;;;22.92;45.99;102070.75;5013316;28;20054;-66
2022/07/05 01:54:39;;;;;;;3.47;1.42;;;;;;;22.92;45.86;102068.09;5014584;28;20480;-66
2022/07/05 01:57:06;;;;;;;3.35;1.50;;;;;;;22.91;46.02;102064.59;5014118;28;20022;-66
2022/07/05 01:59:33;;;;;;;2.58;1.45;;;;;;;22.90;45.83;102054.91;5013688;28;20080;-67
2022/07/05 02:01:58;;;;;;;3.25;1.50;;;;;;;22.87;46.19;102059.66;5013970;28;20050;-66
2022/07/05 02:04:25;;;;;;;2.92;1.42;;;;;;;22.87;45.91;102060.50;5014188;28;20072;-66
2022/07/05 02:06:50;;;;;;;2.28;1.23;;;;;;;22.88;45.89;102056.03;5013106;28;20053;-66
2022/07/05 02:09:15;;;;;;;3.38;1.40;;;;;;;22.87;46.06;102063.16;5013706;28;20022;-66
2022/07/05 02:11:40;;;;;;;2.35;1.30;;;;;;;22.86;46.03;102052.66;5014184;28;20025;-66
2022/07/05 02:14:06;;;;;;;3.10;1.40;;;;;;;22.84;46.07;102052.78;5012975;28;20084;-66
2022/07/05 02:16:31;;;;;;;2.38;1.40;;;;;;;22.85;46.09;102054.47;5013992;28;20028;-66
2022/07/05 02:18:57;;;;;;;2.25;1.10;;;;;;;22.85;45.86;102053.63;5013901;28;20030;-66
2022/07/05 02:21:22;;;;;;;2.83;1.52;;;;;;;22.83;45.82;102056.41;5013027;28;20080;-66
2022/07/05 02:23:48;;;;;;;2.50;1.20;;;;;;;22.81;46.12;102051.22;5013760;28;20040;-66
2022/07/05 02:26:13;;;;;;;2.90;1.40;;;;;;;22.82;45.61;102050.25;5013699;28;20037;-66
2022/07/05 02:28:39;;;;;;;2.90;1.20;;;;;;;22.78;45.80;102040.84;5013093;28;20030;-66
2022/07/05 02:31:04;;;;;;;2.65;1.48;;;;;;;22.80;45.68;102046.88;5013570;28;20068;-66
2022/07/05 02:33:29;;;;;;;2.88;1.40;;;;;;;22.81;46.00;102053.03;5013685;28;20533;-66
2022/07/05 02:35:55;;;;;;;4.15;1.65;;;;;;;22.79;45.87;102050.50;5012348;28;20042;-66
2022/07/05 02:38:20;;;;;;;3.58;1.30;;;;;;;22.79;45.69;102052.31;5013840;28;20477;-66
2022/07/05 02:40:45;;;;;;;2.78;1.55;;;;;;;22.75;45.99;102050.91;5013691;28;20373;-66
2022/07/05 02:43:11;;;;;;;3.10;2.05;;;;;;;22.76;45.47;102053.41;5013037;28;20032;-66
2022/07/05 02:45:36;;;;;;;3.17;1.42;;;;;;;22.77;45.56;102060.41;5013819;28;20041;-66
2022/07/05 02:48:02;;;;;;;3.75;1.50;;;;;;;22.77;45.89;102059.56;5012426;28;20092;-66
2022/07/05 02:50:27;;;;;;;3.20;1.50;;;;;;;22.76;45.82;102056.06;5013434;28;20030;-66
2022/07/05 02:52:52;;;;;;;3.00;1.30;;;;;;;22.75;45.67;102057.03;5013067;28;20022;-66
2022/07/05 02:55:18;;;;;;;2.67;1.20;;;;;;;22.76;45.93;102061.38;5012949;28;20026;-66
2022/07/05 02:57:43;;;;;;;3.22;1.40;;;;;;;22.75;45.76;102064.19;5013497;28;20275;-66
2022/07/05 03:00:09;;;;;;;2.73;1.30;;;;;;;22.75;45.75;102069.50;5012973;28;20402;-66
2022/07/05 03:02:35;;;;;;;1.73;1.10;;;;;;;22.76;45.70;102065.84;5012580;28;20341;-67
2022/07/05 03:05:00;;;;;;;3.25;1.90;;;;;;;22.74;45.46;102059.81;5013040;28;20482;-67
2022/07/05 03:07:25;;;;;;;2.67;1.30;;;;;;;22.73;45.88;102064.31;5013367;28;20022;-67
2022/07/05 03:09:51;;;;;;;2.38;1.40;;;;;;;22.72;45.78;102064.44;5012238;28;20030;-67
2022/07/05 03:12:16;;;;;;;4.03;1.50;;;;;;;22.71;45.74;102070.72;5013301;28;20084;-67
2022/07/05 03:14:41;;;;;;;2.63;1.48;;;;;;;22.71;45.55;102076.84;5012988;28;20782;-67
2022/07/05 03:17:07;;;;;;;2.50;1.35;;;;;;;22.69;45.50;102077.97;5012201;28;20034;-66
2022/07/05 03:19:32;;;;;;;2.58;1.50;;;;;;;22.71;45.61;102082.16;5012694;28;20037;-66
2022/07/05 03:21:57;;;;;;;3.50;1.70;;;;;;;22.71;45.59;102081.34;5012404;28;20025;-67
2022/07/05 03:24:23;;;;;;;2.78;1.55;;;;;;;22.70;45.76;102082.28;5012205;28;20072;-66
2022/07/05 03:26:48;;;;;;;3.60;1.45;;;;;;;22.70;45.22;102087.59;5012988;28;20033;-66
2022/07/05 03:29:13;;;;;;;5.27;1.70;;;;;;;22.70;45.48;102084.94;5012865;28;20073;-66
2022/07/05 03:31:38;;;;;;;3.65;1.50;;;;;;;22.66;45.72;102084.38;5012159;28;20271;-66
2022/07/05 03:34:04;;;;;;;4.45;1.90;;;;;;;22.67;45.31;102086.06;5012545;28;20359;-66
2022/07/05 03:36:29;;;;;;;3.30;1.30;;;;;;;22.65;45.39;102085.31;5013240;28;20052;-66
2022/07/05 03:38:54;;;;;;;3.80;1.67;;;;;;;22.63;45.60;102090.75;5011920;28;20765;-66
2022/07/05 03:41:20;;;;;;;3.20;1.30;;;;;;;22.65;45.69;102085.31;5013005;28;20061;-67
2022/07/05 03:43:45;;;;;;;2.80;1.40;;;;;;;22.64;45.51;102083.66;5012882;28;20280;-66
2022/07/05 03:46:10;;;;;;;3.90;1.45;;;;;;;22.64;45.60;102089.81;5011704;28;20033;-66
2022/07/05 03:48:36;;;;;;;2.87;1.43;;;;;;;22.64;45.23;102091.63;5012771;28;20037;-66
2022/07/05 03:51:01;;;;;;;3.10;1.40;;;;;;;22.64;45.21;102094.28;5012411;28;20809;-66
2022/07/05 03:53:26;;;;;;;5.00;1.42;;;;;;;22.64;45.50;102099.59;5011862;28;20141;-66
2022/07/05 03:55:51;;;;;;;3.70;1.60;;;;;;;22.62;45.32;102093.53;5012353;28;20026;-66
2022/07/05 03:58:17;;;;;;;4.07;1.70;;;;;;;22.63;45.23;102098.72;5011917;28;20080;-66
2022/07/05 04:00:42;;;;;;;3.28;1.50;;;;;;;22.61;45.65;102091.88;5012624;28;20264;-66
2022/07/05 04:03:08;;;;;;;2.70;1.52;;;;;;;22.61;45.58;102106.00;5012218;28;20480;-66
2022/07/05 04:05:33;;;;;;;3.65;1.80;;;;;;;22.59;45.69;102105.28;5011711;28;20066;-66
2022/07/05 04:07:58;;;;;;;2.87;1.60;;;;;;;22.61;45.45;102102.50;5012262;28;20022;-66
2022/07/05 04:10:24;;;;;;;2.95;1.45;;;;;;;22.61;45.55;102105.16;5012883;28;20282;-66
2022/07/05 04:12:49;;;;;;;4.18;1.70;;;;;;;22.62;45.38;102106.81;5011465;28;20104;-66
2022/07/05 04:15:15;;;;;;;3.40;1.50;;;;;;;22.62;45.81;102112.13;5012515;28;20058;-66
2022/07/05 04:17:55;;;;;;;2.88;1.50;;;;;;;22.61;45.37;102107.81;5012365;28;20053;-66
2022/07/05 04:20:22;;;;;;;4.32;1.80;;;;;;;22.59;45.69;102107.09;5011954;28;20105;-66
2022/07/05 04:22:48;;;;;;;3.28;1.52;;;;;;;22.61;45.61;102110.47;5012613;28;20034;-66
2022/07/05 04:25:16;;;;;;;3.58;1.40;;;;;;;22.61;45.46;102118.44;5012032;28;20026;-66
2022/07/05 04:27:43;;;;;;;4.25;1.70;;;;;;;22.60;45.61;102111.44;5011637;28;20083;-66
2022/07/05 04:30:09;;;;;;;3.67;1.45;;;;;;;22.60;45.73;102111.44;5011987;28;20033;-66
2022/07/05 04:32:35;;;;;;;2.90;1.50;;;;;;;22.59;45.61;102107.94;5014319;28;20022;-67
2022/07/05 04:35:00;;;;;;;3.70;1.70;;;;;;;22.59;45.47;102109.75;5014770;28;20026;-66
2022/07/05 04:37:25;;;;;;;3.30;1.40;;;;;;;22.62;45.88;102114.78;5016000;28;20072;-65
2022/07/05 04:39:50;;;;;;;3.65;1.67;;;;;;;22.60;45.88;102106.94;5015714;28;20697;-65
2022/07/05 04:42:16;;;;;;;3.83;1.57;;;;;;;22.62;45.57;102114.78;5015076;28;20076;-65
2022/07/05 04:44:41;;;;;;;2.93;1.53;;;;;;;22.61;45.66;102106.00;5015686;28;20849;-65
2022/07/05 04:47:06;;;;;;;4.15;1.83;;;;;;;22.62;45.44;102114.78;5015666;28;20263;-67
2022/07/05 04:49:31;;;;;;;4.53;1.70;;;;;;;22.62;45.91;102109.47;5014891;28;20044;-67
2022/07/05 04:51:57;;;;;;;3.37;1.77;;;;;;;22.61;45.55;102108.66;5015510;28;20066;-67
2022/07/05 04:54:22;;;;;;;3.73;1.70;;;;;;;22.63;45.84;102108.53;5015448;28;20302;-67
2022/07/05 04:56:47;;;;;;;3.60;1.58;;;;;;;22.62;45.60;102109.47;5015184;28;20346;-67
2022/07/05 04:59:13;;;;;;;4.03;1.80;;;;;;;22.63;45.99;102112.00;5015207;28;20030;-67
2022/07/05 05:01:38;;;;;;;2.95;1.40;;;;;;;22.64;45.71;102112.88;5014563;28;20022;-67
2022/07/05 05:04:03;;;;;;;4.88;1.60;;;;;;;22.61;45.71;102113.97;5015152;28;20034;-67
2022/07/05 05:06:29;;;;;;;3.03;1.73;;;;;;;22.63;45.80;102117.31;5015185;28;20509;-67
2022/07/05 05:08:54;;;;;;;2.40;1.50;;;;;;;22.63;45.90;102109.34;5014388;28;20029;-67
2022/07/05 05:11:19;;;;;;;3.30;1.70;;;;;;;22.64;45.96;102113.72;5015438;28;20018;-67
2022/07/05 05:13:45;;;;;;;2.70;1.70;;;;;;;22.64;46.09;102116.38;5015128;28;20038;-67
2022/07/05 05:16:11;;;;;;;2.92;1.63;;;;;;;22.66;45.83;102115.41;5014013;28;20026;-67
2022/07/05 05:18:36;;;;;;;3.00;1.50;;;;;;;22.66;45.65;102118.91;5015287;28;20530;-67
2022/07/05 05:21:02;;;;;;;2.90;1.80;;;;;;;22.67;45.94;102115.28;5014657;28;20053;-67
2022/07/05 05:23:27;;;;;;;3.53;1.65;;;;;;;22.68;46.17;102122.28;5014200;28;20033;-66
2022/07/05 05:25:52;;;;;;;3.80;1.83;;;;;;;22.68;46.03;102124.09;5014880;28;20022;-66
2022/07/05 05:28:18;;;;;;;3.70;1.50;;;;;;;22.68;45.89;102130.25;5014930;28;20022;-66
2022/07/05 05:30:43;;;;;;;3.83;1.80;;;;;;;22.69;45.81;102131.94;5014038;28;20026;-66
2022/07/05 05:33:08;;;;;;;3.53;1.60;;;;;;;22.70;46.00;102136.31;5014408;28;20354;-66
2022/07/05 05:35:33;;;;;;;3.60;1.70;;;;;;;22.68;45.84;102135.56;5014503;28;20298;-66
2022/07/05 05:37:59;;;;;;;3.92;1.95;;;;;;;22.71;45.85;102142.44;5013692;28;20049;-66
2022/07/05 05:40:25;;;;;;;3.50;1.70;;;;;;;22.70;45.71;102141.63;5014788;28;20022;-66
2022/07/05 05:42:52;;;;;;;3.50;1.65;;;;;;;22.72;46.18;102141.50;5013711;28;20436;-66
2022/07/05 05:45:18;;;;;;;3.55;1.50;;;;;;;22.71;46.26;102148.59;5013437;28;20033;-67
2022/07/05 05:47:50;;;;;;;3.22;1.83;;;;;;;22.72;46.25;102138.84;5014694;28;20018;-66
2022/07/05 05:50:33;;;;;;;3.00;1.63;;;;;;;22.72;45.97;102142.31;5014675;28;20026;-66
2022/07/05 05:52:59;;;;;;;3.17;1.80;;;;;;;22.72;46.24;102146.81;5013418;28;20022;-67
2022/07/05 05:55:26;;;;;;;3.60;1.65;;;;;;;22.72;46.36;102147.63;5014357;28;20026;-67
2022/07/05 05:57:52;;;;;;;10.55;5.60;;;;;;;22.65;46.26;102162.38;5013196;28;20029;-65
2022/07/05 06:00:19;;;;;;;7.03;3.97;;;;;;;22.43;46.53;102164.09;5014529;28;20021;-67
2022/07/05 06:02:47;;;;;;;5.32;2.90;;;;;;;22.33;47.28;102163.13;5014269;28;20030;-67
2022/07/05 06:05:12;;;;;;;4.25;2.30;;;;;;;22.33;47.71;102160.47;5013219;28;20061;-68
2022/07/05 06:07:44;;;;;;;5.25;2.22;;;;;;;22.39;47.77;102165.31;5014302;28;20485;-67
2022/07/05 06:10:10;;;;;;;4.47;2.10;;;;;;;22.44;47.46;102162.28;5013730;28;20108;-68
2022/07/05 06:12:35;;;;;;;3.60;1.90;;;;;;;22.51;47.41;102166.16;5013276;28;20113;-67
2022/07/05 06:15:00;;;;;;;4.00;2.00;;;;;;;22.57;47.42;102165.66;5013616;28;20072;-67
2022/07/05 06:17:26;;;;;;;4.00;1.88;;;;;;;22.64;47.60;102163.38;5014138;28;20030;-69
2022/07/05 06:19:51;;;;;;;4.75;1.90;;;;;;;22.68;47.70;102166.59;5013038;28;20108;-67
2022/07/05 06:22:16;;;;;;;4.72;2.10;;;;;;;22.73;47.41;102172.41;5013919;28;20047;-67
2022/07/05 06:24:42;;;;;;;3.97;1.88;;;;;;;22.75;47.25;102170.47;5013957;28;20453;-67
2022/07/05 06:27:07;;;;;;;5.75;2.15;;;;;;;22.77;47.42;102177.34;5012861;28;20076;-68
2022/07/05 06:29:32;;;;;;;4.72;2.42;;;;;;;22.80;47.59;102161.16;5013627;28;20377;-68
2022/07/05 06:31:59;;;;;;;4.35;1.98;;;;;;;22.85;47.71;102170.56;5013472;28;20053;-67
2022/07/05 06:34:25;;;;;;;4.10;1.80;;;;;;;22.87;47.41;102169.47;5012983;28;20101;-68
2022/07/05 06:36:50;;;;;;;4.63;2.15;;;;;;;22.89;47.62;102172.00;5013280;28;20069;-68
2022/07/05 06:39:15;;;;;;;3.92;2.17;;;;;;;22.92;47.50;102179.72;5013760;28;20029;-67
2022/07/05 06:41:41;;;;;;;4.18;2.08;;;;;;;22.92;47.32;102177.94;5012725;28;20026;-67
2022/07/05 06:44:06;;;;;;;4.00;2.10;;;;;;;22.92;47.50;102171.75;5013371;28;20036;-67
2022/07/05 06:46:31;;;;;;;4.22;1.95;;;;;;;22.93;47.40;102179.59;5013586;28;20018;-66
2022/07/05 06:48:57;;;;;;;3.17;1.80;;;;;;;22.98;47.50;102181.91;5012453;28;20084;-65
2022/07/05 06:51:22;;;;;;;3.53;1.77;;;;;;;22.97;47.83;102175.75;5013611;28;20299;-66
2022/07/05 06:53:47;;;;;;;3.38;2.05;;;;;;;23.00;47.52;102182.59;5013478;28;20354;-65
2022/07/05 06:56:12;;;;;;;3.93;2.07;;;;;;;23.00;47.77;102187.91;5012241;28;20385;-67
2022/07/05 06:58:38;;;;;;;3.92;1.80;;;;;;;23.00;47.67;102186.13;5013541;28;20275;-67
2022/07/05 07:01:03;;;;;;;3.22;1.75;;;;;;;23.04;47.85;102185.88;5012486;28;20415;-65
2022/07/05 07:03:28;;;;;;;4.75;1.83;;;;;;;23.05;47.91;102187.56;5013196;28;20537;-66
2022/07/05 07:05:54;;;;;;;4.18;2.10;;;;;;;23.06;48.15;102181.28;5013106;28;20036;-72
2022/07/05 07:11:03;;;;;;;3.50;1.73;;;;;;;23.03;48.08;102187.69;5013030;28;20274;-71
2022/07/05 07:13:28;;;;;;;3.75;1.80;;;;;;;23.05;48.38;102190.22;5013290;28;20030;-72
2022/07/05 07:15:53;;;;;;;5.43;1.92;;;;;;;23.10;48.18;102186.25;5012396;28;20053;-75
2022/07/05 07:18:19;;;;;;;4.93;2.30;;;;;;;23.15;48.03;102186.72;5013380;28;20021;-71
2022/07/05 07:20:44;;;;;;;4.78;2.13;;;;;;;23.22;48.11;102189.72;5013297;28;20548;-71
2022/07/05 07:23:09;;;;;;;3.78;1.80;;;;;;;23.29;47.65;102190.03;5012267;28;20033;-74
2022/07/05 07:25:35;;;;;;;3.80;1.70;;;;;;;23.32;47.72;102195.09;5013155;28;20030;-72
2022/07/05 07:28:00;;;;;;;3.93;1.70;;;;;;;23.35;47.66;102185.09;5012832;28;20279;-73
2022/07/05 07:30:28;;;;;;;4.75;1.75;;;;;;;23.44;47.47;102187.94;5012471;28;20275;-70
2022/07/05 07:32:53;;;;;;;2.70;1.50;;;;;;;23.51;47.26;102195.28;5012761;28;20040;-71
2022/07/05 07:35:19;;;;;;;3.25;1.70;;;;;;;23.58;47.12;102190.28;5013031;28;20030;-71
2022/07/05 07:37:45;;;;;;;4.07;1.80;;;;;;;23.61;47.07;102191.88;5012353;28;20033;-71
2022/07/05 07:40:11;;;;;;;4.68;1.63;;;;;;;23.67;46.86;102194.84;5013010;28;20022;-70
2022/07/05 07:42:36;;;;;;;4.00;1.60;;;;;;;23.69;46.61;102195.56;5013376;28;20029;-70
2022/07/05 07:45:03;;;;;;;3.92;1.83;;;;;;;23.75;47.07;102199.53;5012432;28;20057;-70
2022/07/05 07:47:35;;;;;;;3.63;1.65;;;;;;;23.77;46.65;102205.56;5013212;28;20109;-70
2022/07/05 07:50:01;;;;;;;4.50;1.75;;;;;;;23.80;46.96;102196.47;5012855;28;20029;-70
2022/07/05 07:52:27;;;;;;;4.30;1.60;;;;;;;23.80;46.89;102199.13;5012372;28;20018;-70
2022/07/05 07:54:53;;;;;;;3.25;1.52;;;;;;;23.83;46.99;102201.53;5012648;28;20017;-70
2022/07/05 07:57:18;;;;;;;4.13;2.20;;;;;;;23.81;46.76;102204.31;5012288;28;20026;-72
2022/07/05 07:59:44;;;;;;;4.30;1.77;;;;;;;23.79;47.29;102194.78;5012965;28;20109;-71
2022/07/05 08:02:10;;;;;;;5.70;1.75;;;;;;;23.79;46.91;102202.78;5012399;28;20561;-72
2022/07/05 08:04:35;;;;;;;3.85;1.83;;;;;;;23.74;46.86;102200.50;5012067;28;20034;-73
2022/07/05 08:07:00;;;;;;;4.25;1.70;;;;;;;23.75;47.16;102201.31;5014103;28;20482;-70
2022/07/05 08:09:26;;;;;;;3.83;1.83;;;;;;;23.71;47.05;102198.94;5016745;28;20026;-73
2022/07/05 08:11:51;;;;;;;5.25;2.05;;;;;;;23.70;47.04;102207.03;5015749;28;20302;-71
2022/07/05 08:14:18;;;;;;;3.67;1.93;;;;;;;23.67;47.10;102204.63;5016748;28;20025;-75
2022/07/05 08:16:45;;;;;;;3.15;1.63;;;;;;;23.65;47.59;102212.75;5016543;28;20279;-72
2022/07/05 08:21:54;;;;;;;4.68;1.80;;;;;;;23.61;47.48;102208.66;5016278;28;20044;-75
2022/07/05 08:24:20;;;;;;;4.03;1.80;;;;;;;23.60;47.58;102209.63;5016409;28;20385;-74
2022/07/05 08:26:45;;;;;;;5.25;3.08;;;;;;;23.59;47.80;102217.75;5015898;28;20075;-72
2022/07/05 08:29:12;;;;;;;5.32;2.65;;;;;;;23.55;47.76;102209.19;5016023;28;20037;-72
2022/07/05 08:31:42;;;;;;;7.63;2.85;;;;;;;23.53;47.62;102214.63;5016558;28;20444;-72
2022/07/05 08:34:07;;;;;;;5.82;3.10;;;;;;;23.52;47.56;102212.09;5017105;28;20549;-78
2022/07/05 08:36:33;;;;;;;3.50;1.77;;;;;;;23.54;47.72;102207.47;5017232;28;20136;-79
2022/07/05 08:38:58;;;;;;;4.25;2.00;;;;;;;23.58;47.69;102206.25;5017186;28;20104;-78
2022/07/05 08:41:24;;;;;;;3.88;1.83;;;;;;;23.62;47.23;102206.84;5017188;28;20048;-78
2022/07/05 08:43:53;;;;;;;4.32;2.03;;;;;;;23.66;47.55;102205.63;5016972;28;20030;-78
2022/07/05 08:46:19;;;;;;;4.93;1.80;;;;;;;23.69;47.72;102205.38;5016321;28;20026;-79
2022/07/05 08:48:48;;;;;;;5.30;1.80;;;;;;;23.72;47.54;102203.28;5015313;28;20492;-77
2022/07/05 08:51:21;;;;;;;3.08;1.48;;;;;;;23.75;47.40;102204.84;5020444;28;20030;-76
2022/07/05 08:53:47;;;;;;;4.22;1.60;;;;;;;23.78;46.91;102198.41;5016043;28;20026;-76
2022/07/05 08:56:13;;;;;;;3.20;1.73;;;;;;;23.79;47.16;102206.28;5016389;28;20105;-79
2022/07/05 08:58:39;;;;;;;4.85;1.70;;;;;;;23.79;47.03;102194.78;5017740;28;20032;-78
2022/07/05 09:01:06;;;;;;;5.57;2.08;;;;;;;23.81;47.06;102198.16;5015123;28;20105;-76
2022/07/05 09:03:36;;;;;;;5.90;3.33;;;;;;;23.82;47.06;102202.50;5019921;28;20026;-76
2022/07/05 09:06:02;;;;;;;6.85;3.40;;;;;;;23.80;47.51;102199.97;5020015;28;20089;-71
2022/07/05 09:08:32;;;;;;;8.13;3.50;;;;;;;23.77;47.65;102196.75;5015713;28;20028;-70
2022/07/05 09:11:02;;;;;;;7.85;2.85;;;;;;;23.74;46.25;102205.81;5016815;28;20041;-74
2022/07/05 09:13:27;;;;;;;7.75;2.72;;;;;;;23.69;45.95;102206.19;5019462;28;20034;-75
2022/07/05 09:15:54;;;;;;;6.97;3.42;;;;;;;23.65;46.38;102204.75;5014918;28;20034;-74
2022/07/05 09:18:38;;;;;;;8.70;3.95;;;;;;;23.63;47.50;102205.88;5015343;28;20030;-73
2022/07/05 09:21:19;;;;;;;7.28;2.67;;;;;;;23.51;46.07;102213.91;5015124;28;20021;-75
2022/07/05 09:24:03;;;;;;;5.13;2.45;;;;;;;23.42;46.52;102211.19;5014311;28;20030;-71
2022/07/05 09:26:43;;;;;;;6.00;2.83;;;;;;;23.29;46.15;102206.88;5016032;28;20095;-71
2022/07/05 09:29:17;;;;;;;4.55;2.40;;;;;;;23.22;47.01;102210.97;5014065;28;20030;-71
2022/07/05 09:31:44;;;;;;;;;;;;;;;23.11;47.75;102209.19;5015572;28;20022;-73
2022/07/05 09:34:14;;;;;;;5.05;2.40;;;;;;;23.07;48.17;102204.25;5014570;28;20379;-74
2022/07/05 09:36:50;;;;;;;7.80;2.85;;;;;;;23.06;48.48;102207.84;5013815;28;20056;-72
2022/07/05 09:39:36;;;;;;;5.38;2.25;;;;;;;23.06;47.10;102205.19;5014920;28;20029;-71
2022/07/05 09:42:20;;;;;;;4.40;2.30;;;;;;;23.10;45.73;102204.88;5013985;28;20061;-69
2022/07/05 09:44:56;;;;;;;7.45;3.10;;;;;;;23.11;44.92;102201.22;5013857;28;20034;-69
2022/07/05 09:47:23;;;;;;;6.78;2.35;;;;;;;23.09;45.91;102195.19;5014694;28;20037;-72
2022/07/05 09:49:53;;;;;;;5.85;2.13;;;;;;;23.11;46.71;102200.38;5013890;28;20033;-72
2022/07/05 09:52:29;;;;;;;6.20;2.00;;;;;;;23.14;47.13;102192.16;5014405;28;20017;-76
2022/07/05 09:55:11;;;;;;;5.95;2.10;;;;;;;23.19;47.23;102192.63;5014206;28;20080;-70
2022/07/05 09:57:39;;;;;;;6.45;2.50;;;;;;;23.24;46.37;102192.25;5013530;28;20026;-68
2022/07/05 10:00:16;;;;;;;5.32;2.50;;;;;;;23.20;44.42;102193.47;5014224;28;20045;-68
2022/07/05 10:02:45;;;;;;;4.85;1.98;;;;;;;23.11;46.50;102187.91;5014454;28;20018;-74
2022/07/05 10:05:15;;;;;;;4.55;2.05;;;;;;;23.08;47.20;102190.84;5013332;28;20486;-76
2022/07/05 10:07:53;;;;;;;4.78;1.90;;;;;;;23.10;47.43;102188.06;5014176;28;20470;-78
2022/07/05 10:10:27;;;;;;;4.68;2.00;;;;;;;23.17;47.61;102189.25;5014648;28;20041;-71
2022/07/05 10:12:55;;;;;;;4.70;1.80;;;;;;;23.21;47.67;102196.00;5013176;28;20037;-70
2022/07/05 10:15:24;;;;;;;5.55;2.72;;;;;;;23.20;46.70;102194.31;5014091;28;20026;-69
2022/07/05 10:17:54;;;;;;;6.43;2.15;;;;;;;23.14;47.74;102200.13;5013811;28;20116;-69
2022/07/05 10:20:29;;;;;;;5.07;2.53;;;;;;;23.02;46.67;102199.28;5013522;28;20466;-70
2022/07/05 10:22:56;;;;;;;5.35;2.00;;;;;;;23.00;47.62;102209.19;5014021;28;20164;-71
2022/07/05 10:25:23;;;;;;;5.15;2.00;;;;;;;22.99;47.82;102204.84;5012909;28;20029;-71
2022/07/05 10:27:53;;;;;;;6.35;1.70;;;;;;;23.04;47.71;102200.00;5013937;28;20037;-71
2022/07/05 10:30:20;;;;;;;3.88;1.70;;;;;;;23.05;47.92;102200.84;5013367;28;20092;-71
2022/07/05 10:32:46;;;;;;;6.40;1.92;;;;;;;23.11;47.78;102197.72;5013004;28;20053;-71
2022/07/05 10:35:11;;;;;;;5.05;1.85;;;;;;;23.13;47.66;102201.09;5013474;28;20040;-71
2022/07/05 10:37:37;;;;;;;5.78;1.95;;;;;;;23.14;47.95;102198.31;5013543;28;20526;-71
2022/07/05 10:40:05;;;;;;;4.85;1.90;;;;;;;23.19;47.80;102203.25;5012523;28;20500;-71
2022/07/05 10:42:43;;;;;;;4.68;1.95;;;;;;;23.22;47.72;102196.84;5013644;28;20037;-71
2022/07/05 10:45:39;;;;;;;5.03;1.70;;;;;;;23.24;47.29;102203.75;5013182;28;20025;-71
2022/07/05 10:48:22;;;;;;;6.03;1.80;;;;;;;23.26;47.40;102195.63;5012751;28;20033;-71
2022/07/05 10:50:59;;;;;;;5.50;1.77;;;;;;;23.27;47.12;102190.16;5013553;28;20033;-71
2022/07/05 10:53:24;;;;;;;4.25;1.98;;;;;;;23.30;47.44;102189.91;5012709;28;20485;-72
2022/07/05 10:55:53;;;;;;;3.83;1.67;;;;;;;23.31;47.48;102180.97;5013041;28;20465;-70
2022/07/05 10:58:21;;;;;;;4.47;1.90;;;;;;;23.33;47.08;102194.97;5013396;28;20068;-71
2022/07/05 11:00:52;;;;;;;5.53;1.80;;;;;;;23.35;47.50;102198.38;5012454;28;20462;-71
2022/07/05 11:03:36;;;;;;;3.20;1.45;;;;;;;23.38;47.10;102199.94;5013427;28;20377;-71
2022/07/05 11:06:04;;;;;;;;;;;;;;;23.38;47.31;102202.59;5013407;28;20080;-70
2022/07/05 11:08:33;;;;;;;3.25;1.50;;;;;;;23.39;47.18;102198.97;5012765;28;19921;-70
2022/07/05 11:11:12;;;;;;;4.93;1.80;;;;;;;23.40;47.12;102197.13;5013094;28;20037;-70
2022/07/05 11:13:40;;;;;;;4.32;1.75;;;;;;;23.40;47.04;102203.31;5013273;28;20481;-71
2022/07/05 11:16:25;;;;;;;5.85;2.03;;;;;;;23.40;47.06;102207.78;5012157;28;20080;-71
2022/07/05 11:18:53;;;;;;;4.80;1.60;;;;;;;23.40;46.91;102213.97;5012733;28;20026;-71
2022/07/05 11:21:20;;;;;;;4.20;1.83;;;;;;;23.40;47.11;102210.44;5012163;28;20029;-71
2022/07/05 11:23:46;;;;;;;3.70;1.50;;;;;;;23.40;46.79;102207.78;5013027;28;20041;-71
2022/07/05 11:26:13;;;;;;;2.97;1.40;;;;;;;23.39;46.83;102208.78;5013003;28;20022;-71
2022/07/05 11:28:45;;;;;;;2.67;1.30;;;;;;;23.40;46.86;102205.97;5012326;28;20155;-71
2022/07/05 11:31:10;;;;;;;3.15;1.40;;;;;;;23.41;46.58;102204.16;5012700;28;20033;-71
2022/07/05 11:33:39;;;;;;;3.42;1.30;;;;;;;23.41;46.89;102199.66;5013176;28;20022;-72